createdAt,value
2022-08-07T00:02:37.414Z,4.75
2022-08-07T00:04:16.872Z,6.82
2022-08-07T00:06:52.831Z,9.02
2022-08-07T00:09:26.635Z,8.80
2022-08-07T00:12:01.787Z,6.78
2022-08-07T00:14:31.737Z,5.80
2022-08-07T00:17:02.396Z,6.45
2022-08-07T00:19:59.736Z,6.53
2022-08-07T00:22:24.657Z,7.82
2022-08-07T00:25:06.931Z,8.07
2022-08-07T00:27:52.627Z,10.95
2022-08-07T00:30:27.025Z,5.78
2022-08-07T00:32:58.173Z,8.00
2022-08-07T00:35:29.869Z,8.95
2022-08-07T00:37:59.087Z,5.85
2022-08-07T00:40:36.978Z,7.38
2022-08-07T00:44:00.786Z,6.97
2022-08-07T00:45:59.509Z,6.95
2022-08-07T00:48:32.090Z,6.03
2022-08-07T00:51:02.972Z,8.25
2022-08-07T00:53:44.158Z,6.35
2022-08-07T00:56:18.847Z,7.35
2022-08-07T00:58:49.596Z,8.30
2022-08-07T01:01:21.150Z,6.95
2022-08-07T01:03:56.412Z,8.15
2022-08-07T01:06:31.011Z,6.97
2022-08-07T01:09:02.824Z,7.70
2022-08-07T01:12:27.671Z,8.10
2022-08-07T01:14:28.583Z,5.65
2022-08-07T01:16:59.131Z,7.40
2022-08-07T01:22:08.814Z,8.40
2022-08-07T01:24:42.909Z,5.82
2022-08-07T01:27:19.427Z,7.05
2022-08-07T01:29:50.574Z,6.50
2022-08-07T01:32:22.413Z,5.80
2022-08-07T01:34:55.617Z,7.38
2022-08-07T01:37:28.032Z,10.40
2022-08-07T01:40:02.249Z,12.00
2022-08-07T01:42:39.442Z,8.25
2022-08-07T01:45:26.688Z,7.18
2022-08-07T01:48:18.320Z,6.32
2022-08-07T01:50:58.252Z,6.70
2022-08-07T01:54:09.170Z,8.00
2022-08-07T01:56:29.037Z,9.95
2022-08-07T01:59:09.178Z,7.18
2022-08-07T02:02:04.209Z,7.68
2022-08-07T02:04:56.223Z,5.90
2022-08-07T02:07:50.373Z,6.13
2022-08-07T02:10:28.859Z,6.38
2022-08-07T02:13:04.250Z,9.93
2022-08-07T02:15:44.752Z,6.10
2022-08-07T02:18:14.916Z,8.88
2022-08-07T02:20:51.981Z,6.45
2022-08-07T02:23:27.979Z,8.43
2022-08-07T02:26:30.953Z,7.00
2022-08-07T02:28:50.456Z,7.07
2022-08-07T02:31:28.710Z,8.13
2022-08-07T02:34:03.862Z,7.32
2022-08-07T02:36:36.164Z,8.40
2022-08-07T02:39:17.185Z,8.32
2022-08-07T02:42:03.037Z,8.38
2022-08-07T02:44:45.817Z,5.15
2022-08-07T02:47:45.393Z,9.48
2022-08-07T02:50:14.569Z,7.78
2022-08-07T02:52:47.812Z,7.80
2022-08-07T02:55:28.790Z,6.60
2022-08-07T02:58:22.309Z,6.93
2022-08-07T03:01:00.494Z,12.88
2022-08-07T03:03:49.239Z,6.50
2022-08-07T03:06:32.092Z,6.75
2022-08-07T03:09:04.674Z,7.03
2022-08-07T03:11:38.920Z,8.30
2022-08-07T03:14:12.162Z,12.80
2022-08-07T03:16:42.692Z,9.20
2022-08-07T03:19:11.881Z,9.02
2022-08-07T03:21:50.533Z,9.63
2022-08-07T03:24:25.818Z,7.78
2022-08-07T03:26:59.630Z,9.23
2022-08-07T03:29:44.669Z,7.82
2022-08-07T03:32:29.540Z,7.70
2022-08-07T03:35:17.762Z,7.45
2022-08-07T03:38:01.711Z,5.88
2022-08-07T03:40:36.686Z,6.95
2022-08-07T03:43:14.781Z,7.47
2022-08-07T03:45:53.961Z,7.28
2022-08-07T03:48:26.829Z,7.65
2022-08-07T03:50:59.885Z,5.32
2022-08-07T03:54:05.933Z,7.72
2022-08-07T03:56:32.812Z,5.50
2022-08-07T03:59:08.545Z,7.95
2022-08-07T04:01:45.531Z,12.30
2022-08-07T04:04:18.447Z,6.47
2022-08-07T04:06:52.142Z,5.90
2022-08-07T04:09:38.016Z,7.18
2022-08-07T04:12:24.812Z,6.00
2022-08-07T04:15:00.383Z,5.03
2022-08-07T04:18:58.005Z,5.15
2022-08-07T04:20:23.421Z,6.68
2022-08-07T04:23:01.785Z,8.43
2022-08-07T04:25:39.087Z,8.15
2022-08-07T04:28:13.319Z,6.03
2022-08-07T04:30:55.259Z,6.97
2022-08-07T04:33:31.776Z,5.65
2022-08-07T04:36:06.380Z,4.45
2022-08-07T04:38:37.273Z,5.13
2022-08-07T04:41:06.692Z,7.47
2022-08-07T04:44:10.711Z,9.30
2022-08-07T04:46:59.633Z,7.50
2022-08-07T04:49:57.477Z,6.85
2022-08-07T04:52:37.922Z,9.27
2022-08-07T04:58:24.121Z,6.78
2022-08-07T04:58:47.469Z,7.50
2022-08-07T05:01:22.834Z,9.68
2022-08-07T05:04:17.780Z,7.20
2022-08-07T05:06:57.681Z,8.18
2022-08-07T05:09:45.633Z,7.10
2022-08-07T05:12:31.124Z,6.75
2022-08-07T05:15:23.464Z,7.75
2022-08-07T05:18:09.044Z,6.80
2022-08-07T05:20:43.459Z,7.15
2022-08-07T05:23:23.171Z,8.23
2022-08-07T05:26:13.890Z,16.10
2022-08-07T05:28:53.014Z,10.93
2022-08-07T05:31:35.202Z,9.38
2022-08-07T05:34:12.565Z,8.90
2022-08-07T05:36:49.038Z,8.23
2022-08-07T05:40:05.842Z,9.35
2022-08-07T05:42:34.640Z,8.07
2022-08-07T05:45:14.870Z,7.10
2022-08-07T05:48:03.099Z,11.32
2022-08-07T05:50:43.317Z,7.07
2022-08-07T05:56:09.473Z,6.65
2022-08-07T05:58:52.735Z,9.57
2022-08-07T06:01:26.044Z,7.35
2022-08-07T06:04:01.107Z,7.80
2022-08-07T06:06:38.283Z,6.88
2022-08-07T06:09:18.261Z,7.85
2022-08-07T06:11:51.257Z,7.95
2022-08-07T06:14:28.526Z,8.73
2022-08-07T06:17:02.429Z,6.75
2022-08-07T06:19:47.938Z,5.60
2022-08-07T06:22:36.907Z,6.93
2022-08-07T06:25:21.355Z,8.85
2022-08-07T06:28:01.467Z,10.07
2022-08-07T06:30:37.223Z,9.48
2022-08-07T06:33:16.121Z,9.75
2022-08-07T06:36:12.061Z,9.32
2022-08-07T06:38:39.174Z,8.95
2022-08-07T06:41:47.648Z,8.18
2022-08-07T06:44:17.817Z,10.23
2022-08-07T06:46:53.596Z,8.52
2022-08-07T06:49:50.931Z,10.57
2022-08-07T06:52:31.597Z,10.55
2022-08-07T06:55:33.377Z,7.57
2022-08-07T06:58:05.261Z,8.75
2022-08-07T07:00:53.075Z,7.80
2022-08-07T07:03:39.504Z,8.40
2022-08-07T07:06:11.206Z,7.65
2022-08-07T07:08:46.605Z,8.75
2022-08-07T07:12:07.403Z,10.43
2022-08-07T07:14:08.429Z,8.30
2022-08-07T07:16:50.529Z,6.72
2022-08-07T07:19:57.204Z,7.95
2022-08-07T07:22:36.908Z,12.52
2022-08-07T07:26:31.670Z,9.25
2022-08-07T07:28:03.083Z,6.63
2022-08-07T07:30:39.717Z,8.48
2022-08-07T07:33:13.509Z,12.88
2022-08-07T07:36:03.742Z,8.05
2022-08-07T07:38:35.984Z,11.90
2022-08-07T07:41:09.292Z,12.05
2022-08-07T07:44:14.881Z,14.18
2022-08-07T07:46:37.406Z,16.13
2022-08-07T07:50:35.167Z,13.07
2022-08-07T07:52:16.913Z,9.50
2022-08-07T07:54:50.671Z,7.88
2022-08-07T07:57:43.708Z,7.60
2022-08-07T08:00:29.028Z,7.38
2022-08-07T08:03:08.439Z,9.27
2022-08-07T08:05:54.131Z,8.18
2022-08-07T08:08:35.584Z,7.05
2022-08-07T08:11:16.206Z,9.82
2022-08-07T08:13:53.890Z,6.28
2022-08-07T08:16:31.117Z,9.43
2022-08-07T08:19:09.905Z,11.82
2022-08-07T08:22:11.922Z,6.85
2022-08-07T08:25:18.907Z,7.57
2022-08-07T08:27:56.205Z,8.35
2022-08-07T08:30:29.174Z,7.15
2022-08-07T08:33:03.027Z,5.43
2022-08-07T08:35:42.909Z,3.78
2022-08-07T08:38:20.800Z,5.32
2022-08-07T08:40:57.266Z,5.63
2022-08-07T08:43:42.696Z,5.18
2022-08-07T08:46:38.441Z,6.15
2022-08-07T08:49:32.895Z,3.40
2022-08-07T08:52:13.677Z,3.35
2022-08-07T08:54:54.995Z,4.00
2022-08-07T08:57:34.592Z,4.07
2022-08-07T09:00:08.310Z,5.70
2022-08-07T09:02:49.473Z,4.00
2022-08-07T09:05:38.496Z,3.53
2022-08-07T09:08:31.162Z,2.90
2022-08-07T09:11:24.837Z,3.90
2022-08-07T09:14:29.564Z,2.75
2022-08-07T09:17:11.886Z,4.40
2022-08-07T09:19:59.099Z,3.05
2022-08-07T09:24:38.846Z,4.53
2022-08-07T09:25:54.872Z,2.20
2022-08-07T09:30:01.863Z,3.67
2022-08-07T09:31:39.029Z,2.67
2022-08-07T09:34:26.171Z,2.42
2022-08-07T09:37:04.794Z,4.03
2022-08-07T09:39:55.289Z,2.70
2022-08-07T09:42:48.010Z,3.33
2022-08-07T09:48:30.878Z,4.50
2022-08-07T09:52:16.021Z,2.38
2022-08-07T09:54:33.208Z,3.22
2022-08-07T09:57:36.559Z,2.28
2022-08-07T10:00:14.401Z,3.17
2022-08-07T10:04:06.579Z,2.42
2022-08-07T10:07:39.926Z,2.47
2022-08-07T10:10:22.907Z,4.03
2022-08-07T10:13:29.881Z,2.42
2022-08-07T10:16:23.040Z,3.95
2022-08-07T10:19:23.785Z,5.10
2022-08-07T10:22:16.157Z,3.10
2022-08-07T10:25:03.706Z,3.45
2022-08-07T10:27:56.079Z,3.78
2022-08-07T10:30:37.459Z,3.60
2022-08-07T10:34:14.227Z,3.80
2022-08-07T10:36:46.362Z,4.10
2022-08-07T10:39:41.195Z,2.00
2022-08-07T10:42:31.176Z,2.22
2022-08-07T10:45:19.383Z,3.10
2022-08-07T10:48:34.890Z,4.65
2022-08-07T10:51:16.284Z,2.67
2022-08-07T10:54:02.715Z,6.50
2022-08-07T10:56:47.600Z,3.97
2022-08-07T10:59:37.278Z,3.10
2022-08-07T11:02:33.627Z,2.50
2022-08-07T11:05:35.801Z,1.55
2022-08-07T11:08:41.505Z,4.45
2022-08-07T11:11:20.184Z,2.85
2022-08-07T11:14:43.662Z,2.95
2022-08-07T11:17:01.275Z,4.93
2022-08-07T11:19:43.454Z,2.40
2022-08-07T11:22:36.996Z,5.82
2022-08-07T11:25:21.202Z,4.88
2022-08-07T11:28:05.298Z,3.00
2022-08-07T11:30:46.513Z,2.80
2022-08-07T11:33:58.482Z,3.90
2022-08-07T11:36:31.372Z,2.70
2022-08-07T11:39:14.497Z,3.25
2022-08-07T11:42:07.187Z,5.80
2022-08-07T11:45:00.055Z,2.53
2022-08-07T11:47:55.973Z,2.77
2022-08-07T11:50:57.463Z,2.00
2022-08-07T11:54:01.737Z,2.50
2022-08-07T11:56:53.236Z,2.50
2022-08-07T12:00:12.269Z,3.08
2022-08-07T12:03:41.983Z,3.10
2022-08-07T12:06:37.102Z,2.72
2022-08-07T12:09:16.672Z,3.15
2022-08-07T12:12:10.882Z,6.35
2022-08-07T12:14:55.620Z,3.42
2022-08-07T12:17:59.280Z,2.25
2022-08-07T12:20:36.910Z,3.42
2022-08-07T12:24:05.757Z,3.15
2022-08-07T12:26:29.936Z,2.28
2022-08-07T12:29:12.265Z,2.97
2022-08-07T12:32:03.867Z,2.90
2022-08-07T12:34:37.012Z,2.83
2022-08-07T12:37:16.875Z,2.45
2022-08-07T12:39:57.520Z,1.70
2022-08-07T12:42:32.209Z,2.83
2022-08-07T12:45:08.518Z,2.75
2022-08-07T12:47:49.214Z,1.75
2022-08-07T12:50:38.930Z,3.00
2022-08-07T12:53:19.472Z,2.10
2022-08-07T12:56:04.181Z,3.08
2022-08-07T12:58:42.902Z,1.80
2022-08-07T13:01:32.333Z,4.35
2022-08-07T13:04:34.253Z,1.95
2022-08-07T13:08:14.512Z,2.05
2022-08-07T13:10:52.899Z,2.20
2022-08-07T13:13:53.748Z,4.07
2022-08-07T13:16:32.697Z,2.58
2022-08-07T13:19:34.997Z,2.55
2022-08-07T13:22:19.977Z,2.35
2022-08-07T13:25:02.775Z,2.50
2022-08-07T13:28:12.985Z,3.75
2022-08-07T13:30:39.877Z,2.05
2022-08-07T13:34:32.092Z,1.52
2022-08-07T13:36:20.200Z,2.05
2022-08-07T13:39:02.648Z,6.32
2022-08-07T13:41:47.460Z,2.42
2022-08-07T13:47:00.111Z,1.77
2022-08-07T13:50:34.238Z,2.28
2022-08-07T13:52:32.436Z,1.23
2022-08-07T13:55:19.093Z,3.80
2022-08-07T13:58:01.937Z,2.00
2022-08-07T14:00:54.334Z,2.83
2022-08-07T14:03:29.218Z,2.53
2022-08-07T14:06:17.513Z,1.85
2022-08-07T14:08:53.483Z,7.63
2022-08-07T14:11:24.281Z,3.63
2022-08-07T14:14:04.668Z,2.95
2022-08-07T14:16:41.317Z,1.52
2022-08-07T14:20:39.320Z,3.42
2022-08-07T14:22:15.691Z,2.13
2022-08-07T14:25:08.213Z,2.05
2022-08-07T14:28:10.465Z,4.13
2022-08-07T14:30:40.570Z,5.03
2022-08-07T14:33:14.914Z,2.22
2022-08-07T14:35:47.495Z,2.97
2022-08-07T14:38:30.855Z,4.65
2022-08-07T14:41:04.064Z,3.00
2022-08-07T14:43:57.949Z,3.35
2022-08-07T14:46:32.471Z,3.42
2022-08-07T14:49:17.418Z,4.78
2022-08-07T14:52:05.006Z,2.45
2022-08-07T14:54:43.161Z,3.90
2022-08-07T14:57:19.154Z,3.60
2022-08-07T15:00:06.810Z,3.17
2022-08-07T15:02:37.328Z,5.25
2022-08-07T15:08:12.579Z,4.53
2022-08-07T15:10:59.138Z,4.78
2022-08-07T15:13:37.063Z,4.93
2022-08-07T15:16:14.623Z,7.30
2022-08-07T15:18:51.555Z,4.75
2022-08-07T15:25:12.690Z,6.03
2022-08-07T15:27:15.951Z,4.55
2022-08-07T15:33:01.429Z,3.85
2022-08-07T15:36:01.718Z,5.55
2022-08-07T15:38:30.694Z,4.82
2022-08-07T15:44:04.198Z,3.72
2022-08-07T15:46:51.844Z,5.82
2022-08-07T15:50:05.449Z,3.78
2022-08-07T15:52:21.586Z,7.60
2022-08-07T15:55:02.794Z,4.88
2022-08-07T15:57:47.540Z,5.60
2022-08-07T16:00:32.214Z,5.68
2022-08-07T16:03:06.157Z,4.18
2022-08-07T16:05:40.383Z,3.50
2022-08-07T16:08:32.439Z,4.43
2022-08-07T16:11:26.545Z,5.65
2022-08-07T16:14:10.508Z,4.57
2022-08-07T16:17:03.108Z,5.67
2022-08-07T16:20:04.226Z,6.35
2022-08-07T16:23:09.833Z,2.70
2022-08-07T16:26:00.646Z,8.35
2022-08-07T16:30:06.346Z,4.18
2022-08-07T16:32:00.735Z,10.25
2022-08-07T16:34:49.511Z,4.63
2022-08-07T16:38:04.139Z,4.35
2022-08-07T16:41:22.222Z,3.92
2022-08-07T16:45:15.428Z,5.05
2022-08-07T16:48:28.743Z,3.65
2022-08-07T16:51:57.611Z,3.67
2022-08-07T16:54:33.061Z,7.05
2022-08-07T16:58:02.868Z,22.50
2022-08-07T17:00:34.556Z,6.13
2022-08-07T17:03:57.680Z,4.47
2022-08-07T17:06:45.885Z,7.95
2022-08-07T17:10:07.007Z,2.85
2022-08-07T17:12:35.088Z,6.03
2022-08-07T17:15:20.206Z,4.88
2022-08-07T17:18:04.113Z,3.50
2022-08-07T17:20:37.788Z,3.53
2022-08-07T17:23:18.213Z,7.25
2022-08-07T17:26:02.906Z,3.80
2022-08-07T17:28:49.757Z,3.00
2022-08-07T17:31:25.549Z,2.47
2022-08-07T17:34:34.578Z,3.28
2022-08-07T17:38:05.442Z,4.50
2022-08-07T17:40:07.931Z,4.45
2022-08-07T17:42:58.555Z,2.22
2022-08-07T17:45:35.561Z,3.28
2022-08-07T17:48:12.810Z,6.07
2022-08-07T17:51:01.784Z,4.28
2022-08-07T17:54:00.967Z,6.03
2022-08-07T17:56:35.649Z,5.10
2022-08-07T17:59:25.098Z,3.03
2022-08-07T18:02:05.154Z,3.50
2022-08-07T18:04:43.884Z,2.05
2022-08-07T18:07:33.980Z,4.03
2022-08-07T18:10:32.755Z,4.03
2022-08-07T18:13:16.518Z,5.65
2022-08-07T18:16:03.187Z,4.25
2022-08-07T18:21:01.579Z,6.30
2022-08-07T18:21:55.093Z,4.18
2022-08-07T18:24:37.728Z,3.80
2022-08-07T18:27:38.349Z,2.25
2022-08-07T18:30:31.818Z,4.70
2022-08-07T18:34:39.360Z,3.40
2022-08-07T18:38:53.672Z,3.17
2022-08-07T18:40:42.874Z,3.03
2022-08-07T18:43:36.941Z,4.80
2022-08-07T18:46:27.005Z,6.68
2022-08-07T18:50:31.520Z,3.92
2022-08-07T18:52:35.247Z,4.22
2022-08-07T18:55:42.501Z,7.53
2022-08-07T18:58:57.843Z,2.97
2022-08-07T19:02:32.432Z,2.70
2022-08-07T19:04:58.047Z,4.07
2022-08-07T19:07:51.707Z,1.60
2022-08-07T19:10:49.874Z,2.92
2022-08-07T19:13:27.783Z,3.35
2022-08-07T19:16:43.701Z,3.25
2022-08-07T19:19:01.219Z,2.72
2022-08-07T19:21:44.936Z,4.78
2022-08-07T19:24:30.462Z,3.28
2022-08-07T19:29:00.179Z,3.30
2022-08-07T19:30:56.401Z,3.53
2022-08-07T19:32:59.295Z,3.72
2022-08-07T19:35:33.256Z,5.65
2022-08-07T19:38:17.054Z,4.30
2022-08-07T19:40:50.395Z,2.67
2022-08-07T19:43:45.541Z,5.45
2022-08-07T19:46:19.114Z,4.45
2022-08-07T19:48:56.133Z,3.95
2022-08-07T19:51:52.680Z,5.43
2022-08-07T19:54:32.983Z,3.95
2022-08-07T19:58:03.260Z,4.22
2022-08-07T20:00:10.226Z,5.40
2022-08-07T20:02:52.248Z,3.78
2022-08-07T20:05:28.766Z,4.40
2022-08-07T20:08:03.071Z,3.90
2022-08-07T20:10:52.017Z,3.88
2022-08-07T20:13:34.037Z,6.55
2022-08-07T20:16:06.687Z,3.95
2022-08-07T20:18:47.534Z,7.18
2022-08-07T20:24:00.200Z,5.97
2022-08-07T20:26:44.761Z,7.93
2022-08-07T20:29:47.693Z,5.07
2022-08-07T20:32:22.319Z,4.68
2022-08-07T20:34:58.618Z,5.75
2022-08-07T20:37:34.025Z,6.25
2022-08-07T20:40:32.407Z,4.90
2022-08-07T20:42:57.907Z,9.80
2022-08-07T20:45:33.106Z,5.70
2022-08-07T20:48:30.249Z,8.68
2022-08-07T20:51:01.678Z,7.00
2022-08-07T20:54:03.851Z,5.82
2022-08-07T20:56:27.693Z,6.47
2022-08-07T20:59:02.508Z,4.82
2022-08-07T21:01:45.361Z,6.18
2022-08-07T21:04:22.422Z,5.18
2022-08-07T21:06:56.806Z,4.20
2022-08-07T21:09:52.785Z,5.05
2022-08-07T21:12:30.686Z,4.97
2022-08-07T21:15:05.388Z,7.18
2022-08-07T21:18:05.819Z,5.97
2022-08-07T21:20:33.533Z,6.55
2022-08-07T21:23:11.505Z,5.55
2022-08-07T21:26:01.382Z,4.93
2022-08-07T21:28:50.380Z,7.70
2022-08-07T21:32:42.539Z,6.78
2022-08-07T21:34:31.643Z,4.32
2022-08-07T21:37:09.679Z,7.90
2022-08-07T21:39:51.379Z,5.43
2022-08-07T21:42:42.605Z,5.97
2022-08-07T21:46:08.532Z,6.70
2022-08-07T21:48:33.650Z,5.93
2022-08-07T21:51:20.463Z,6.07
2022-08-07T21:54:09.190Z,5.38
2022-08-07T21:56:49.151Z,4.95
2022-08-07T22:00:02.754Z,5.90
2022-08-07T22:02:30.815Z,6.22
2022-08-07T22:05:03.917Z,6.40
2022-08-07T22:07:58.040Z,6.15
2022-08-07T22:10:35.440Z,6.38
2022-08-07T22:13:09.319Z,4.55
2022-08-07T22:16:40.234Z,7.50
2022-08-07T22:18:45.592Z,8.32
2022-08-07T22:21:20.476Z,7.88
2022-08-07T22:23:58.320Z,6.07
2022-08-07T22:26:44.282Z,4.40
2022-08-07T22:29:37.995Z,5.55
2022-08-07T22:32:21.628Z,6.30
2022-08-07T22:34:56.057Z,6.70
2022-08-07T22:38:04.665Z,6.70
2022-08-07T22:40:45.773Z,5.32
2022-08-07T22:43:23.475Z,6.50
2022-08-07T22:47:02.061Z,6.93
2022-08-07T22:49:54.196Z,5.18
2022-08-07T22:53:26.830Z,6.78
2022-08-07T22:56:17.477Z,7.07
2022-08-07T22:59:21.957Z,5.25
2022-08-07T23:02:08.354Z,4.97
2022-08-07T23:06:06.968Z,4.75
2022-08-07T23:08:04.837Z,5.25
2022-08-07T23:11:12.836Z,7.35
2022-08-07T23:14:14.973Z,4.95
2022-08-07T23:17:05.367Z,5.55
2022-08-07T23:20:09.277Z,9.40
2022-08-07T23:22:54.029Z,5.32
2022-08-07T23:25:36.440Z,8.57
2022-08-07T23:28:44.327Z,7.35
2022-08-07T23:32:49.273Z,4.75
2022-08-07T23:34:57.253Z,5.50
2022-08-07T23:38:01.341Z,6.93
2022-08-07T23:40:39.637Z,6.15
2022-08-07T23:43:46.123Z,6.60
2022-08-07T23:47:11.629Z,5.32
2022-08-07T23:50:17.013Z,5.57
2022-08-07T23:53:06.749Z,5.90
2022-08-07T23:55:52.894Z,4.57
2022-08-07T23:58:34.998Z,6.85
